Oldenburg, Mississippi
Current Conditions -  °F | °C
As of 9:15 AM on Wednesday 22 Oct 2014 (Local Time) from KHEZ Reporting Station
Clear Clear  
Wind Chill: 63°   Ceiling: Unl
Heat Index: 63°   Visibility: 10mi
Dew Point: 54°   Wind: 9mph
Humidity: 72%   Direction: 60°ENE
Pressure: 30.15"   Gusts: NA
Location:  31.4774°N, 91.0619°W
Report Text: KHEZ 221415Z AUTO 06008KT 10SM CLR 17/12 A3015 RMK AO1
Loading
Personal Weather Stations






























Interactive Weather Map New forecast layout! Learn more

10-Day Weather Forecast

Advertisements
Track Severe Weather on mobile